Terminal Aerodrome Forecast
Issued by NWS Charleston, WV

Home | Current Version | Previous Version | Text Only | Print | Product List | Glossary On
Versions: 1 2 3 4 5 6 7 8 9 10 11 12 13 14 15 16 17 18 19 20 21 22 23
000
FTUS41 KRLX 190500
TAFEKN
TAF
KEKN 190528Z 1906/2006 VRB03KT P6SM BKN150
     FM191300 14007KT P6SM BKN070
     FM191600 16010G16KT P6SM BKN060
     FM192000 14012G19KT P6SM -SHRA OVC035
     FM200500 16007KT 4SM -SHRA BR OVC035=

USA.gov is the U.S. government's official web portal to all federal, state and local government web resources and services.